sensor_id;sensor_type;location;lat;lon;timestamp;P1;durP1;ratioP1;P2;durP2;ratioP2
64520;SDS011;50896;46.714;17.322;2022-09-17T00:01:00;3.28;;;2.15;;
64520;SDS011;50896;46.714;17.322;2022-09-17T00:03:30;3.15;;;2.38;;
64520;SDS011;50896;46.714;17.322;2022-09-17T00:06:09;3.88;;;2.78;;
64520;SDS011;50896;46.714;17.322;2022-09-17T00:08:38;4.07;;;2.75;;
64520;SDS011;50896;46.714;17.322;2022-09-17T00:11:07;4.80;;;2.75;;
64520;SDS011;50896;46.714;17.322;2022-09-17T00:13:39;3.97;;;2.88;;
64520;SDS011;50896;46.714;17.322;2022-09-17T00:16:08;3.00;;;2.40;;
64520;SDS011;50896;46.714;17.322;2022-09-17T00:18:35;4.00;;;2.67;;
64520;SDS011;50896;46.714;17.322;2022-09-17T00:21:06;3.90;;;2.70;;
64520;SDS011;50896;46.714;17.322;2022-09-17T00:23:42;2.75;;;2.42;;
64520;SDS011;50896;46.714;17.322;2022-09-17T00:26:09;4.22;;;2.83;;
64520;SDS011;50896;46.714;17.322;2022-09-17T00:28:37;3.67;;;2.85;;
64520;SDS011;50896;46.714;17.322;2022-09-17T00:31:07;3.05;;;2.50;;
64520;SDS011;50896;46.714;17.322;2022-09-17T00:33:35;3.25;;;2.60;;
64520;SDS011;50896;46.714;17.322;2022-09-17T00:36:02;3.10;;;2.80;;
64520;SDS011;50896;46.714;17.322;2022-09-17T00:38:30;4.20;;;2.50;;
64520;SDS011;50896;46.714;17.322;2022-09-17T00:40:57;6.78;;;2.80;;
64520;SDS011;50896;46.714;17.322;2022-09-17T00:46:11;4.30;;;2.72;;
64520;SDS011;50896;46.714;17.322;2022-09-17T00:49:12;3.88;;;2.47;;
64520;SDS011;50896;46.714;17.322;2022-09-17T00:51:58;3.10;;;2.70;;
64520;SDS011;50896;46.714;17.322;2022-09-17T00:54:31;3.45;;;2.47;;
64520;SDS011;50896;46.714;17.322;2022-09-17T00:56:58;4.18;;;2.90;;
64520;SDS011;50896;46.714;17.322;2022-09-17T00:59:25;3.50;;;3.00;;
64520;SDS011;50896;46.714;17.322;2022-09-17T01:01:52;8.35;;;3.10;;
64520;SDS011;50896;46.714;17.322;2022-09-17T01:04:22;4.60;;;2.97;;
64520;SDS011;50896;46.714;17.322;2022-09-17T01:14:45;4.00;;;3.20;;
64520;SDS011;50896;46.714;17.322;2022-09-17T01:17:35;3.92;;;3.15;;
64520;SDS011;50896;46.714;17.322;2022-09-17T01:38:57;6.63;;;3.50;;
64520;SDS011;50896;46.714;17.322;2022-09-17T01:44:10;5.75;;;3.40;;
64520;SDS011;50896;46.714;17.322;2022-09-17T01:46:46;5.68;;;3.63;;
64520;SDS011;50896;46.714;17.322;2022-09-17T01:49:18;6.10;;;3.58;;
64520;SDS011;50896;46.714;17.322;2022-09-17T01:51:50;4.03;;;3.55;;
64520;SDS011;50896;46.714;17.322;2022-09-17T01:59:50;5.07;;;3.90;;
64520;SDS011;50896;46.714;17.322;2022-09-17T02:05:09;4.75;;;3.33;;
64520;SDS011;50896;46.714;17.322;2022-09-17T02:07:46;6.30;;;3.80;;
64520;SDS011;50896;46.714;17.322;2022-09-17T02:10:22;6.18;;;3.40;;
64520;SDS011;50896;46.714;17.322;2022-09-17T02:12:59;6.18;;;3.83;;
64520;SDS011;50896;46.714;17.322;2022-09-17T02:15:38;5.00;;;3.45;;
64520;SDS011;50896;46.714;17.322;2022-09-17T02:18:16;5.57;;;3.83;;
64520;SDS011;50896;46.714;17.322;2022-09-17T02:21:07;4.43;;;3.72;;
64520;SDS011;50896;46.714;17.322;2022-09-17T02:23:43;4.30;;;3.72;;
64520;SDS011;50896;46.714;17.322;2022-09-17T02:26:16;5.85;;;4.18;;
64520;SDS011;50896;46.714;17.322;2022-09-17T02:28:50;6.90;;;4.47;;
64520;SDS011;50896;46.714;17.322;2022-09-17T02:31:22;6.45;;;4.38;;
64520;SDS011;50896;46.714;17.322;2022-09-17T02:33:50;7.55;;;4.15;;
64520;SDS011;50896;46.714;17.322;2022-09-17T02:36:22;5.20;;;3.90;;
64520;SDS011;50896;46.714;17.322;2022-09-17T02:38:54;5.00;;;4.00;;
64520;SDS011;50896;46.714;17.322;2022-09-17T02:41:48;5.53;;;4.07;;
64520;SDS011;50896;46.714;17.322;2022-09-17T02:44:28;3.75;;;3.38;;
64520;SDS011;50896;46.714;17.322;2022-09-17T02:47:19;4.72;;;4.13;;
64520;SDS011;50896;46.714;17.322;2022-09-17T02:53:15;6.15;;;4.00;;
64520;SDS011;50896;46.714;17.322;2022-09-17T02:55:59;4.85;;;4.15;;
64520;SDS011;50896;46.714;17.322;2022-09-17T03:01:18;5.68;;;3.88;;
64520;SDS011;50896;46.714;17.322;2022-09-17T03:03:51;8.15;;;4.60;;
64520;SDS011;50896;46.714;17.322;2022-09-17T03:06:21;6.15;;;4.72;;
64520;SDS011;50896;46.714;17.322;2022-09-17T03:08:49;6.32;;;4.53;;
64520;SDS011;50896;46.714;17.322;2022-09-17T03:11:16;6.88;;;4.35;;
64520;SDS011;50896;46.714;17.322;2022-09-17T03:13:43;5.30;;;4.72;;
64520;SDS011;50896;46.714;17.322;2022-09-17T03:16:09;6.25;;;4.63;;
64520;SDS011;50896;46.714;17.322;2022-09-17T03:18:36;6.90;;;4.40;;
64520;SDS011;50896;46.714;17.322;2022-09-17T03:21:03;9.30;;;4.55;;
64520;SDS011;50896;46.714;17.322;2022-09-17T03:23:30;7.28;;;5.18;;
64520;SDS011;50896;46.714;17.322;2022-09-17T03:25:58;10.50;;;5.43;;
64520;SDS011;50896;46.714;17.322;2022-09-17T03:28:24;9.23;;;4.97;;
64520;SDS011;50896;46.714;17.322;2022-09-17T03:30:52;12.43;;;5.13;;
64520;SDS011;50896;46.714;17.322;2022-09-17T03:33:19;5.78;;;4.68;;
64520;SDS011;50896;46.714;17.322;2022-09-17T03:35:45;6.30;;;5.00;;
64520;SDS011;50896;46.714;17.322;2022-09-17T03:38:12;8.15;;;5.05;;
64520;SDS011;50896;46.714;17.322;2022-09-17T03:40:40;6.45;;;5.03;;
64520;SDS011;50896;46.714;17.322;2022-09-17T03:43:07;8.77;;;5.07;;
64520;SDS011;50896;46.714;17.322;2022-09-17T03:45:34;8.55;;;5.30;;
64520;SDS011;50896;46.714;17.322;2022-09-17T03:48:00;6.57;;;4.75;;
64520;SDS011;50896;46.714;17.322;2022-09-17T03:50:27;4.78;;;4.35;;
64520;SDS011;50896;46.714;17.322;2022-09-17T03:52:54;6.28;;;4.38;;
64520;SDS011;50896;46.714;17.322;2022-09-17T03:55:21;7.13;;;4.95;;
64520;SDS011;50896;46.714;17.322;2022-09-17T03:57:47;6.70;;;4.70;;
64520;SDS011;50896;46.714;17.322;2022-09-17T04:00:14;4.72;;;4.07;;
64520;SDS011;50896;46.714;17.322;2022-09-17T04:02:43;8.23;;;4.70;;
64520;SDS011;50896;46.714;17.322;2022-09-17T04:05:10;8.50;;;4.85;;
64520;SDS011;50896;46.714;17.322;2022-09-17T04:07:38;5.18;;;4.50;;
64520;SDS011;50896;46.714;17.322;2022-09-17T04:10:06;10.23;;;4.80;;
64520;SDS011;50896;46.714;17.322;2022-09-17T04:12:33;6.45;;;4.82;;
64520;SDS011;50896;46.714;17.322;2022-09-17T04:15:00;4.57;;;4.18;;
64520;SDS011;50896;46.714;17.322;2022-09-17T04:17:27;6.72;;;4.40;;
64520;SDS011;50896;46.714;17.322;2022-09-17T04:19:54;5.20;;;4.53;;
64520;SDS011;50896;46.714;17.322;2022-09-17T04:22:20;6.32;;;4.72;;
64520;SDS011;50896;46.714;17.322;2022-09-17T04:24:47;11.02;;;4.32;;
64520;SDS011;50896;46.714;17.322;2022-09-17T04:27:14;8.35;;;4.22;;
64520;SDS011;50896;46.714;17.322;2022-09-17T04:29:41;6.43;;;4.53;;
64520;SDS011;50896;46.714;17.322;2022-09-17T04:32:08;7.88;;;5.13;;
64520;SDS011;50896;46.714;17.322;2022-09-17T04:34:34;10.32;;;5.78;;
64520;SDS011;50896;46.714;17.322;2022-09-17T04:37:02;7.35;;;4.63;;
64520;SDS011;50896;46.714;17.322;2022-09-17T04:39:28;8.35;;;4.95;;
64520;SDS011;50896;46.714;17.322;2022-09-17T04:41:55;11.05;;;4.63;;
64520;SDS011;50896;46.714;17.322;2022-09-17T04:44:22;7.57;;;4.55;;
64520;SDS011;50896;46.714;17.322;2022-09-17T04:46:48;6.43;;;4.80;;
64520;SDS011;50896;46.714;17.322;2022-09-17T04:49:15;7.20;;;4.45;;
64520;SDS011;50896;46.714;17.322;2022-09-17T04:51:42;6.10;;;4.65;;
64520;SDS011;50896;46.714;17.322;2022-09-17T04:54:09;6.28;;;4.78;;
64520;SDS011;50896;46.714;17.322;2022-09-17T04:56:35;9.07;;;5.13;;
64520;SDS011;50896;46.714;17.322;2022-09-17T04:59:02;7.90;;;4.78;;
64520;SDS011;50896;46.714;17.322;2022-09-17T05:01:29;7.00;;;4.93;;
64520;SDS011;50896;46.714;17.322;2022-09-17T05:03:56;7.50;;;4.60;;
64520;SDS011;50896;46.714;17.322;2022-09-17T05:06:22;7.50;;;5.10;;
64520;SDS011;50896;46.714;17.322;2022-09-17T05:08:49;9.13;;;5.13;;
64520;SDS011;50896;46.714;17.322;2022-09-17T05:11:16;5.72;;;4.53;;
64520;SDS011;50896;46.714;17.322;2022-09-17T05:13:43;6.53;;;5.03;;
64520;SDS011;50896;46.714;17.322;2022-09-17T05:16:09;6.72;;;5.07;;
64520;SDS011;50896;46.714;17.322;2022-09-17T05:18:37;7.05;;;5.32;;
64520;SDS011;50896;46.714;17.322;2022-09-17T05:21:03;8.23;;;5.30;;
64520;SDS011;50896;46.714;17.322;2022-09-17T05:23:30;9.85;;;5.45;;
64520;SDS011;50896;46.714;17.322;2022-09-17T05:25:57;6.80;;;6.10;;
64520;SDS011;50896;46.714;17.322;2022-09-17T05:28:26;9.75;;;5.60;;
64520;SDS011;50896;46.714;17.322;2022-09-17T05:30:53;5.22;;;4.72;;
64520;SDS011;50896;46.714;17.322;2022-09-17T05:33:20;9.13;;;5.15;;
64520;SDS011;50896;46.714;17.322;2022-09-17T05:35:46;6.13;;;4.78;;
64520;SDS011;50896;46.714;17.322;2022-09-17T05:38:13;6.22;;;4.90;;
64520;SDS011;50896;46.714;17.322;2022-09-17T05:40:40;6.40;;;4.95;;
64520;SDS011;50896;46.714;17.322;2022-09-17T05:43:07;7.65;;;5.57;;
64520;SDS011;50896;46.714;17.322;2022-09-17T05:45:35;8.27;;;4.90;;
64520;SDS011;50896;46.714;17.322;2022-09-17T05:48:04;7.22;;;5.32;;
64520;SDS011;50896;46.714;17.322;2022-09-17T05:50:32;6.30;;;5.25;;
64520;SDS011;50896;46.714;17.322;2022-09-17T05:53:06;6.90;;;4.95;;
64520;SDS011;50896;46.714;17.322;2022-09-17T05:55:36;7.60;;;5.07;;
64520;SDS011;50896;46.714;17.322;2022-09-17T05:58:12;8.73;;;5.05;;
64520;SDS011;50896;46.714;17.322;2022-09-17T06:00:41;5.28;;;4.43;;
64520;SDS011;50896;46.714;17.322;2022-09-17T06:03:12;5.60;;;4.82;;
64520;SDS011;50896;46.714;17.322;2022-09-17T06:05:41;5.75;;;4.80;;
64520;SDS011;50896;46.714;17.322;2022-09-17T06:08:08;7.15;;;4.40;;
64520;SDS011;50896;46.714;17.322;2022-09-17T06:10:35;6.28;;;4.90;;
64520;SDS011;50896;46.714;17.322;2022-09-17T06:13:04;5.22;;;4.20;;
64520;SDS011;50896;46.714;17.322;2022-09-17T06:15:31;6.13;;;5.00;;
64520;SDS011;50896;46.714;17.322;2022-09-17T06:17:57;6.35;;;4.80;;
64520;SDS011;50896;46.714;17.322;2022-09-17T06:20:24;9.45;;;5.32;;
64520;SDS011;50896;46.714;17.322;2022-09-17T06:22:57;9.98;;;4.65;;
64520;SDS011;50896;46.714;17.322;2022-09-17T06:25:24;8.43;;;4.65;;
64520;SDS011;50896;46.714;17.322;2022-09-17T06:27:51;7.85;;;4.55;;
64520;SDS011;50896;46.714;17.322;2022-09-17T06:30:18;9.20;;;4.40;;
64520;SDS011;50896;46.714;17.322;2022-09-17T06:32:45;9.20;;;5.70;;
64520;SDS011;50896;46.714;17.322;2022-09-17T06:35:12;7.13;;;5.28;;
64520;SDS011;50896;46.714;17.322;2022-09-17T06:37:38;6.75;;;5.65;;
64520;SDS011;50896;46.714;17.322;2022-09-17T06:40:06;6.03;;;5.00;;
64520;SDS011;50896;46.714;17.322;2022-09-17T06:42:34;5.70;;;5.05;;
64520;SDS011;50896;46.714;17.322;2022-09-17T06:45:01;5.90;;;4.50;;
64520;SDS011;50896;46.714;17.322;2022-09-17T06:47:34;6.88;;;4.13;;
64520;SDS011;50896;46.714;17.322;2022-09-17T06:50:01;7.50;;;4.97;;
64520;SDS011;50896;46.714;17.322;2022-09-17T06:52:28;5.05;;;3.70;;
64520;SDS011;50896;46.714;17.322;2022-09-17T06:54:54;7.13;;;4.47;;
64520;SDS011;50896;46.714;17.322;2022-09-17T06:57:21;10.90;;;4.72;;
64520;SDS011;50896;46.714;17.322;2022-09-17T06:59:48;9.98;;;4.30;;
64520;SDS011;50896;46.714;17.322;2022-09-17T07:02:15;7.93;;;3.90;;
64520;SDS011;50896;46.714;17.322;2022-09-17T07:04:42;5.63;;;2.75;;
64520;SDS011;50896;46.714;17.322;2022-09-17T07:07:09;5.07;;;3.38;;
64520;SDS011;50896;46.714;17.322;2022-09-17T07:09:35;4.45;;;3.47;;
64520;SDS011;50896;46.714;17.322;2022-09-17T07:12:05;4.25;;;2.95;;
64520;SDS011;50896;46.714;17.322;2022-09-17T07:14:33;4.22;;;3.28;;
64520;SDS011;50896;46.714;17.322;2022-09-17T07:16:59;3.97;;;2.63;;
64520;SDS011;50896;46.714;17.322;2022-09-17T07:19:26;5.40;;;2.97;;
64520;SDS011;50896;46.714;17.322;2022-09-17T07:21:53;4.75;;;3.10;;
64520;SDS011;50896;46.714;17.322;2022-09-17T07:24:20;4.05;;;3.28;;
64520;SDS011;50896;46.714;17.322;2022-09-17T07:26:46;8.43;;;3.83;;
64520;SDS011;50896;46.714;17.322;2022-09-17T07:29:14;3.97;;;2.67;;
64520;SDS011;50896;46.714;17.322;2022-09-17T07:31:41;3.03;;;2.13;;
64520;SDS011;50896;46.714;17.322;2022-09-17T07:34:08;5.10;;;2.50;;
64520;SDS011;50896;46.714;17.322;2022-09-17T07:36:35;3.88;;;2.10;;
64520;SDS011;50896;46.714;17.322;2022-09-17T07:39:02;2.65;;;2.20;;
64520;SDS011;50896;46.714;17.322;2022-09-17T07:41:29;4.68;;;1.95;;
64520;SDS011;50896;46.714;17.322;2022-09-17T07:43:55;3.17;;;1.70;;
64520;SDS011;50896;46.714;17.322;2022-09-17T07:46:22;1.40;;;1.30;;
64520;SDS011;50896;46.714;17.322;2022-09-17T07:48:49;4.72;;;1.40;;
64520;SDS011;50896;46.714;17.322;2022-09-17T07:51:17;3.10;;;1.50;;
64520;SDS011;50896;46.714;17.322;2022-09-17T07:53:52;2.63;;;1.30;;
64520;SDS011;50896;46.714;17.322;2022-09-17T07:56:20;4.28;;;1.70;;
64520;SDS011;50896;46.714;17.322;2022-09-17T07:58:48;3.33;;;1.35;;
64520;SDS011;50896;46.714;17.322;2022-09-17T08:01:16;1.70;;;1.30;;
64520;SDS011;50896;46.714;17.322;2022-09-17T08:03:46;1.65;;;1.10;;
64520;SDS011;50896;46.714;17.322;2022-09-17T08:06:16;1.80;;;1.15;;
64520;SDS011;50896;46.714;17.322;2022-09-17T08:08:45;2.28;;;1.20;;
64520;SDS011;50896;46.714;17.322;2022-09-17T08:11:13;1.70;;;0.93;;
64520;SDS011;50896;46.714;17.322;2022-09-17T08:14:04;3.28;;;1.38;;
64520;SDS011;50896;46.714;17.322;2022-09-17T08:16:33;1.05;;;0.80;;
64520;SDS011;50896;46.714;17.322;2022-09-17T08:19:00;1.25;;;0.70;;
64520;SDS011;50896;46.714;17.322;2022-09-17T08:21:27;1.52;;;1.10;;
64520;SDS011;50896;46.714;17.322;2022-09-17T08:23:54;1.10;;;0.70;;
64520;SDS011;50896;46.714;17.322;2022-09-17T08:26:21;2.47;;;0.90;;
64520;SDS011;50896;46.714;17.322;2022-09-17T08:28:49;5.43;;;0.90;;
64520;SDS011;50896;46.714;17.322;2022-09-17T08:31:21;2.47;;;1.20;;
64520;SDS011;50896;46.714;17.322;2022-09-17T08:33:50;2.07;;;1.00;;
64520;SDS011;50896;46.714;17.322;2022-09-17T08:36:17;2.35;;;1.17;;
64520;SDS011;50896;46.714;17.322;2022-09-17T08:38:45;2.33;;;1.10;;
64520;SDS011;50896;46.714;17.322;2022-09-17T08:41:31;1.60;;;0.93;;
64520;SDS011;50896;46.714;17.322;2022-09-17T08:49:35;1.85;;;1.00;;
64520;SDS011;50896;46.714;17.322;2022-09-17T08:52:13;1.50;;;1.23;;
64520;SDS011;50896;46.714;17.322;2022-09-17T09:00:23;4.57;;;1.20;;
64520;SDS011;50896;46.714;17.322;2022-09-17T09:02:58;2.05;;;1.20;;
64520;SDS011;50896;46.714;17.322;2022-09-17T09:05:41;1.67;;;1.25;;
64520;SDS011;50896;46.714;17.322;2022-09-17T09:11:05;1.40;;;1.20;;
64520;SDS011;50896;46.714;17.322;2022-09-17T09:13:43;3.30;;;1.50;;
64520;SDS011;50896;46.714;17.322;2022-09-17T09:16:15;2.00;;;1.60;;
64520;SDS011;50896;46.714;17.322;2022-09-17T09:18:45;3.28;;;1.70;;
64520;SDS011;50896;46.714;17.322;2022-09-17T09:26:53;1.85;;;1.20;;
64520;SDS011;50896;46.714;17.322;2022-09-17T09:35:35;2.00;;;1.40;;
64520;SDS011;50896;46.714;17.322;2022-09-17T09:41:14;2.38;;;1.63;;
64520;SDS011;50896;46.714;17.322;2022-09-17T09:43:52;2.65;;;1.27;;
64520;SDS011;50896;46.714;17.322;2022-09-17T09:58:33;3.33;;;1.60;;
64520;SDS011;50896;46.714;17.322;2022-09-17T10:01:02;5.07;;;1.80;;
64520;SDS011;50896;46.714;17.322;2022-09-17T10:03:37;3.15;;;1.70;;
64520;SDS011;50896;46.714;17.322;2022-09-17T10:06:12;3.10;;;1.80;;
64520;SDS011;50896;46.714;17.322;2022-09-17T10:08:41;2.20;;;1.67;;
64520;SDS011;50896;46.714;17.322;2022-09-17T10:11:29;4.50;;;1.85;;
64520;SDS011;50896;46.714;17.322;2022-09-17T10:17:09;3.25;;;1.77;;
64520;SDS011;50896;46.714;17.322;2022-09-17T10:19:42;2.95;;;1.70;;
64520;SDS011;50896;46.714;17.322;2022-09-17T10:22:22;3.45;;;1.70;;
64520;SDS011;50896;46.714;17.322;2022-09-17T10:27:18;2.97;;;1.60;;
64520;SDS011;50896;46.714;17.322;2022-09-17T10:29:49;2.40;;;1.60;;
64520;SDS011;50896;46.714;17.322;2022-09-17T10:32:21;2.78;;;1.60;;
64520;SDS011;50896;46.714;17.322;2022-09-17T10:35:13;2.42;;;1.77;;
64520;SDS011;50896;46.714;17.322;2022-09-17T10:37:51;3.92;;;1.70;;
64520;SDS011;50896;46.714;17.322;2022-09-17T10:42:49;3.35;;;1.70;;
64520;SDS011;50896;46.714;17.322;2022-09-17T10:45:38;3.70;;;2.20;;
64520;SDS011;50896;46.714;17.322;2022-09-17T10:48:15;3.40;;;1.85;;
64520;SDS011;50896;46.714;17.322;2022-09-17T10:50:49;2.22;;;1.80;;
64520;SDS011;50896;46.714;17.322;2022-09-17T10:53:19;4.32;;;2.65;;
64520;SDS011;50896;46.714;17.322;2022-09-17T10:55:50;4.30;;;1.95;;
64520;SDS011;50896;46.714;17.322;2022-09-17T11:09:22;5.43;;;2.28;;
64520;SDS011;50896;46.714;17.322;2022-09-17T11:12:25;3.08;;;2.67;;
64520;SDS011;50896;46.714;17.322;2022-09-17T11:18:16;4.30;;;2.72;;
64520;SDS011;50896;46.714;17.322;2022-09-17T11:26:40;3.20;;;2.50;;
64520;SDS011;50896;46.714;17.322;2022-09-17T11:37:42;4.55;;;2.60;;
64520;SDS011;50896;46.714;17.322;2022-09-17T11:43:16;3.65;;;2.65;;
64520;SDS011;50896;46.714;17.322;2022-09-17T11:45:57;3.65;;;2.75;;
64520;SDS011;50896;46.714;17.322;2022-09-17T11:48:38;3.70;;;2.65;;
64520;SDS011;50896;46.714;17.322;2022-09-17T11:54:39;4.00;;;2.22;;
64520;SDS011;50896;46.714;17.322;2022-09-17T11:57:08;3.22;;;2.63;;
64520;SDS011;50896;46.714;17.322;2022-09-17T12:02:32;3.22;;;2.15;;
64520;SDS011;50896;46.714;17.322;2022-09-17T12:05:05;4.13;;;2.25;;
64520;SDS011;50896;46.714;17.322;2022-09-17T12:07:55;6.95;;;2.63;;
64520;SDS011;50896;46.714;17.322;2022-09-17T12:11:16;6.25;;;2.53;;
64520;SDS011;50896;46.714;17.322;2022-09-17T12:13:49;3.53;;;2.35;;
64520;SDS011;50896;46.714;17.322;2022-09-17T12:19:10;4.53;;;2.75;;
64520;SDS011;50896;46.714;17.322;2022-09-17T12:21:44;2.80;;;2.38;;
64520;SDS011;50896;46.714;17.322;2022-09-17T12:24:21;4.45;;;2.47;;
64520;SDS011;50896;46.714;17.322;2022-09-17T12:37:54;2.13;;;1.70;;
64520;SDS011;50896;46.714;17.322;2022-09-17T12:40:43;1.65;;;1.13;;
64520;SDS011;50896;46.714;17.322;2022-09-17T12:51:51;1.27;;;0.80;;
64520;SDS011;50896;46.714;17.322;2022-09-17T13:00:11;2.13;;;1.08;;
64520;SDS011;50896;46.714;17.322;2022-09-17T13:08:11;1.45;;;1.25;;
64520;SDS011;50896;46.714;17.322;2022-09-17T13:10:47;2.40;;;1.42;;
64520;SDS011;50896;46.714;17.322;2022-09-17T13:22:25;1.73;;;1.60;;
64520;SDS011;50896;46.714;17.322;2022-09-17T13:25:05;3.58;;;1.50;;
64520;SDS011;50896;46.714;17.322;2022-09-17T13:27:34;6.30;;;1.50;;
64520;SDS011;50896;46.714;17.322;2022-09-17T13:30:04;2.13;;;1.42;;
64520;SDS011;50896;46.714;17.322;2022-09-17T13:40:33;1.33;;;0.75;;
64520;SDS011;50896;46.714;17.322;2022-09-17T13:46:23;4.15;;;1.23;;
64520;SDS011;50896;46.714;17.322;2022-09-17T13:53:58;3.63;;;1.42;;
64520;SDS011;50896;46.714;17.322;2022-09-17T13:56:36;1.65;;;0.93;;
64520;SDS011;50896;46.714;17.322;2022-09-17T13:59:19;3.38;;;0.80;;
64520;SDS011;50896;46.714;17.322;2022-09-17T14:01:55;1.27;;;0.60;;
64520;SDS011;50896;46.714;17.322;2022-09-17T14:09:50;2.55;;;0.70;;
64520;SDS011;50896;46.714;17.322;2022-09-17T14:13:02;2.67;;;0.70;;
64520;SDS011;50896;46.714;17.322;2022-09-17T14:21:04;3.83;;;0.80;;
64520;SDS011;50896;46.714;17.322;2022-09-17T14:23:41;3.00;;;0.85;;
64520;SDS011;50896;46.714;17.322;2022-09-17T14:26:11;1.98;;;0.77;;
64520;SDS011;50896;46.714;17.322;2022-09-17T14:32:12;0.63;;;0.57;;
64520;SDS011;50896;46.714;17.322;2022-09-17T14:34:42;4.32;;;0.85;;
64520;SDS011;50896;46.714;17.322;2022-09-17T14:37:10;2.17;;;0.80;;
64520;SDS011;50896;46.714;17.322;2022-09-17T14:39:43;4.13;;;0.70;;
64520;SDS011;50896;46.714;17.322;2022-09-17T14:42:12;1.70;;;0.70;;
64520;SDS011;50896;46.714;17.322;2022-09-17T14:44:49;1.33;;;0.75;;
64520;SDS011;50896;46.714;17.322;2022-09-17T14:47:23;1.23;;;0.60;;
64520;SDS011;50896;46.714;17.322;2022-09-17T14:49:52;1.45;;;0.73;;
64520;SDS011;50896;46.714;17.322;2022-09-17T14:52:28;2.55;;;0.75;;
64520;SDS011;50896;46.714;17.322;2022-09-17T14:57:46;1.98;;;0.80;;
64520;SDS011;50896;46.714;17.322;2022-09-17T15:00:32;2.13;;;0.60;;
64520;SDS011;50896;46.714;17.322;2022-09-17T15:03:00;4.72;;;1.13;;
64520;SDS011;50896;46.714;17.322;2022-09-17T15:05:35;1.13;;;0.80;;
64520;SDS011;50896;46.714;17.322;2022-09-17T15:10:49;3.65;;;1.00;;
64520;SDS011;50896;46.714;17.322;2022-09-17T15:13:24;5.47;;;0.82;;
64520;SDS011;50896;46.714;17.322;2022-09-17T15:15:56;3.42;;;0.70;;
64520;SDS011;50896;46.714;17.322;2022-09-17T15:18:33;1.10;;;0.82;;
64520;SDS011;50896;46.714;17.322;2022-09-17T15:21:05;3.00;;;0.60;;
64520;SDS011;50896;46.714;17.322;2022-09-17T15:23:37;2.35;;;0.90;;
64520;SDS011;50896;46.714;17.322;2022-09-17T15:26:04;2.47;;;1.10;;
64520;SDS011;50896;46.714;17.322;2022-09-17T15:31:04;6.32;;;0.90;;
64520;SDS011;50896;46.714;17.322;2022-09-17T15:33:35;4.38;;;0.98;;
64520;SDS011;50896;46.714;17.322;2022-09-17T15:36:14;1.90;;;1.00;;
64520;SDS011;50896;46.714;17.322;2022-09-17T15:38:48;0.88;;;0.60;;
64520;SDS011;50896;46.714;17.322;2022-09-17T15:44:14;1.70;;;0.88;;
64520;SDS011;50896;46.714;17.322;2022-09-17T15:47:32;3.00;;;0.90;;
64520;SDS011;50896;46.714;17.322;2022-09-17T15:50:12;2.65;;;0.90;;
64520;SDS011;50896;46.714;17.322;2022-09-17T15:52:42;1.27;;;0.80;;
64520;SDS011;50896;46.714;17.322;2022-09-17T15:57:57;2.35;;;0.80;;
64520;SDS011;50896;46.714;17.322;2022-09-17T16:00:25;4.05;;;0.90;;
64520;SDS011;50896;46.714;17.322;2022-09-17T16:02:52;5.53;;;1.27;;
64520;SDS011;50896;46.714;17.322;2022-09-17T16:07:49;2.22;;;0.90;;
64520;SDS011;50896;46.714;17.322;2022-09-17T16:10:17;1.17;;;0.90;;
64520;SDS011;50896;46.714;17.322;2022-09-17T16:12:48;2.20;;;0.93;;
64520;SDS011;50896;46.714;17.322;2022-09-17T16:15:15;4.65;;;1.17;;
64520;SDS011;50896;46.714;17.322;2022-09-17T16:17:43;2.30;;;1.05;;
64520;SDS011;50896;46.714;17.322;2022-09-17T16:20:19;1.77;;;0.82;;
64520;SDS011;50896;46.714;17.322;2022-09-17T16:22:49;2.67;;;0.80;;
64520;SDS011;50896;46.714;17.322;2022-09-17T16:25:18;1.67;;;0.73;;
64520;SDS011;50896;46.714;17.322;2022-09-17T16:32:55;1.23;;;0.80;;
64520;SDS011;50896;46.714;17.322;2022-09-17T16:35:22;2.10;;;0.80;;
64520;SDS011;50896;46.714;17.322;2022-09-17T16:37:50;4.03;;;1.00;;
64520;SDS011;50896;46.714;17.322;2022-09-17T16:40:19;2.22;;;0.70;;
64520;SDS011;50896;46.714;17.322;2022-09-17T16:42:48;1.60;;;0.80;;
64520;SDS011;50896;46.714;17.322;2022-09-17T16:45:15;4.35;;;0.80;;
64520;SDS011;50896;46.714;17.322;2022-09-17T16:47:42;1.38;;;0.80;;
64520;SDS011;50896;46.714;17.322;2022-09-17T16:50:10;1.30;;;0.70;;
64520;SDS011;50896;46.714;17.322;2022-09-17T16:52:38;2.83;;;0.90;;
64520;SDS011;50896;46.714;17.322;2022-09-17T16:55:05;3.58;;;0.98;;
64520;SDS011;50896;46.714;17.322;2022-09-17T16:57:33;3.15;;;1.30;;
64520;SDS011;50896;46.714;17.322;2022-09-17T17:00:00;3.15;;;0.65;;
64520;SDS011;50896;46.714;17.322;2022-09-17T17:02:27;4.22;;;0.88;;
64520;SDS011;50896;46.714;17.322;2022-09-17T17:04:54;5.38;;;1.10;;
64520;SDS011;50896;46.714;17.322;2022-09-17T17:07:20;3.25;;;0.88;;
64520;SDS011;50896;46.714;17.322;2022-09-17T17:09:47;5.68;;;1.00;;
64520;SDS011;50896;46.714;17.322;2022-09-17T17:12:14;4.43;;;0.98;;
64520;SDS011;50896;46.714;17.322;2022-09-17T17:14:41;0.88;;;0.70;;
64520;SDS011;50896;46.714;17.322;2022-09-17T17:17:09;2.42;;;0.90;;
64520;SDS011;50896;46.714;17.322;2022-09-17T17:19:36;1.80;;;0.80;;
64520;SDS011;50896;46.714;17.322;2022-09-17T17:22:03;1.33;;;0.80;;
64520;SDS011;50896;46.714;17.322;2022-09-17T17:24:29;2.78;;;0.90;;
64520;SDS011;50896;46.714;17.322;2022-09-17T17:26:56;2.50;;;1.13;;
64520;SDS011;50896;46.714;17.322;2022-09-17T17:29:23;2.05;;;0.82;;
64520;SDS011;50896;46.714;17.322;2022-09-17T17:31:49;1.77;;;0.73;;
64520;SDS011;50896;46.714;17.322;2022-09-17T17:34:16;6.97;;;0.90;;
64520;SDS011;50896;46.714;17.322;2022-09-17T17:36:43;2.20;;;0.75;;
64520;SDS011;50896;46.714;17.322;2022-09-17T17:39:10;3.58;;;1.17;;
64520;SDS011;50896;46.714;17.322;2022-09-17T17:41:37;2.75;;;0.90;;
64520;SDS011;50896;46.714;17.322;2022-09-17T17:44:04;2.50;;;0.80;;
64520;SDS011;50896;46.714;17.322;2022-09-17T17:46:30;2.50;;;0.80;;
64520;SDS011;50896;46.714;17.322;2022-09-17T17:48:57;2.83;;;0.80;;
64520;SDS011;50896;46.714;17.322;2022-09-17T17:51:24;2.33;;;0.80;;
64520;SDS011;50896;46.714;17.322;2022-09-17T17:53:52;1.80;;;0.70;;
64520;SDS011;50896;46.714;17.322;2022-09-17T17:56:19;2.03;;;1.05;;
64520;SDS011;50896;46.714;17.322;2022-09-17T17:58:45;2.95;;;0.68;;
64520;SDS011;50896;46.714;17.322;2022-09-17T18:03:45;2.88;;;0.70;;
64520;SDS011;50896;46.714;17.322;2022-09-17T18:06:12;2.75;;;0.80;;
64520;SDS011;50896;46.714;17.322;2022-09-17T18:08:39;2.08;;;0.73;;
64520;SDS011;50896;46.714;17.322;2022-09-17T18:11:08;3.43;;;0.70;;
64520;SDS011;50896;46.714;17.322;2022-09-17T18:13:36;2.38;;;0.80;;
64520;SDS011;50896;46.714;17.322;2022-09-17T18:16:04;4.18;;;1.00;;
64520;SDS011;50896;46.714;17.322;2022-09-17T18:18:34;2.17;;;0.65;;
64520;SDS011;50896;46.714;17.322;2022-09-17T18:21:14;1.75;;;0.80;;
64520;SDS011;50896;46.714;17.322;2022-09-17T18:23:43;3.15;;;1.08;;
64520;SDS011;50896;46.714;17.322;2022-09-17T18:26:18;2.47;;;0.80;;
64520;SDS011;50896;46.714;17.322;2022-09-17T18:28:49;2.92;;;0.95;;
64520;SDS011;50896;46.714;17.322;2022-09-17T18:33:49;2.35;;;0.90;;
64520;SDS011;50896;46.714;17.322;2022-09-17T18:36:20;2.35;;;0.90;;
64520;SDS011;50896;46.714;17.322;2022-09-17T18:38:47;5.53;;;1.20;;
64520;SDS011;50896;46.714;17.322;2022-09-17T18:41:13;2.13;;;1.35;;
64520;SDS011;50896;46.714;17.322;2022-09-17T18:43:40;6.15;;;2.70;;
64520;SDS011;50896;46.714;17.322;2022-09-17T18:46:08;3.40;;;2.03;;
64520;SDS011;50896;46.714;17.322;2022-09-17T18:48:35;4.15;;;1.90;;